Terminal Aerodrome Forecast
Issued by NWS Mt. Holly, NJ

Home | Current Version | Previous Version | Text Only | Print | Product List | Glossary On
Versions: 1 2 3 4 5 6 7 8 9 10 11 12 13 14 15 16 17 18 19 20 21 22 23
000
FTUS41 KPHI 290305 AAA
TAFILG
TAF AMD
KILG 290305Z 2903/2924 31010G18KT P6SM SCT050
     FM290900 32012G20KT P6SM SCT100
     FM291200 32012KT P6SM SKC
     FM292000 26007KT P6SM SKC=

USA.gov is the U.S. government's official web portal to all federal, state and local government web resources and services.